Terminal Aerodrome Forecast
Issued by NWS Twin Cities, MN

Home | Current Version | Previous Version | Graphics & Text | Print | Product List | Glossary On
Versions: 1 2 3 4 5 6 7 8 9 10 11 12 13 14 15 16
544
FTUS43 KMPX 260520
TAFSTC
TAF
KSTC 260520Z 2606/2706 28003KT P6SM SCT060
      TEMPO 2609/2612 6SM BR
     FM261800 19006KT P6SM BKN200=

USA.gov is the U.S. government's official web portal to all federal, state and local government web resources and services.